sensor_id;sensor_type;location;lat;lon;timestamp;P1;durP1;ratioP1;P2;durP2;ratioP2
10479;SDS011;12789;42.610;23.040;2023-07-30T00:02:27;9.35;;;4.63;;
10479;SDS011;12789;42.610;23.040;2023-07-30T00:04:54;7.18;;;4.35;;
10479;SDS011;12789;42.610;23.040;2023-07-30T00:07:21;12.13;;;4.10;;
10479;SDS011;12789;42.610;23.040;2023-07-30T00:09:48;10.07;;;3.92;;
10479;SDS011;12789;42.610;23.040;2023-07-30T00:12:15;8.27;;;4.30;;
10479;SDS011;12789;42.610;23.040;2023-07-30T00:14:44;8.88;;;3.72;;
10479;SDS011;12789;42.610;23.040;2023-07-30T00:17:13;6.25;;;3.50;;
10479;SDS011;12789;42.610;23.040;2023-07-30T00:19:41;12.52;;;3.90;;
10479;SDS011;12789;42.610;23.040;2023-07-30T00:22:10;4.25;;;3.60;;
10479;SDS011;12789;42.610;23.040;2023-07-30T00:24:38;4.60;;;3.70;;
10479;SDS011;12789;42.610;23.040;2023-07-30T00:27:05;6.90;;;3.95;;
10479;SDS011;12789;42.610;23.040;2023-07-30T00:29:37;8.30;;;4.13;;
10479;SDS011;12789;42.610;23.040;2023-07-30T00:32:07;8.60;;;4.22;;
10479;SDS011;12789;42.610;23.040;2023-07-30T00:34:34;4.82;;;3.90;;
10479;SDS011;12789;42.610;23.040;2023-07-30T00:37:01;4.50;;;3.20;;
10479;SDS011;12789;42.610;23.040;2023-07-30T00:39:28;5.05;;;3.42;;
10479;SDS011;12789;42.610;23.040;2023-07-30T00:41:55;5.60;;;3.45;;
10479;SDS011;12789;42.610;23.040;2023-07-30T00:44:21;3.67;;;3.25;;
10479;SDS011;12789;42.610;23.040;2023-07-30T00:46:48;4.10;;;3.55;;
10479;SDS011;12789;42.610;23.040;2023-07-30T00:49:19;4.03;;;3.58;;
10479;SDS011;12789;42.610;23.040;2023-07-30T00:51:46;8.68;;;3.80;;
10479;SDS011;12789;42.610;23.040;2023-07-30T00:54:13;7.10;;;4.13;;
10479;SDS011;12789;42.610;23.040;2023-07-30T00:56:40;8.80;;;4.10;;
10479;SDS011;12789;42.610;23.040;2023-07-30T00:59:13;17.25;;;4.60;;
10479;SDS011;12789;42.610;23.040;2023-07-30T01:01:41;17.13;;;4.68;;
10479;SDS011;12789;42.610;23.040;2023-07-30T01:04:08;14.20;;;4.80;;
10479;SDS011;12789;42.610;23.040;2023-07-30T01:06:38;9.38;;;3.88;;
10479;SDS011;12789;42.610;23.040;2023-07-30T01:09:05;10.00;;;3.97;;
10479;SDS011;12789;42.610;23.040;2023-07-30T01:11:32;8.50;;;3.92;;
10479;SDS011;12789;42.610;23.040;2023-07-30T01:14:03;11.05;;;4.38;;
10479;SDS011;12789;42.610;23.040;2023-07-30T01:16:31;4.20;;;3.80;;
10479;SDS011;12789;42.610;23.040;2023-07-30T01:18:58;7.15;;;3.58;;
10479;SDS011;12789;42.610;23.040;2023-07-30T01:21:31;4.53;;;3.75;;
10479;SDS011;12789;42.610;23.040;2023-07-30T01:24:01;6.30;;;3.47;;
10479;SDS011;12789;42.610;23.040;2023-07-30T01:26:30;8.63;;;3.97;;
10479;SDS011;12789;42.610;23.040;2023-07-30T01:28:58;4.50;;;3.60;;
10479;SDS011;12789;42.610;23.040;2023-07-30T01:31:27;7.82;;;3.80;;
10479;SDS011;12789;42.610;23.040;2023-07-30T01:33:58;5.45;;;3.60;;
10479;SDS011;12789;42.610;23.040;2023-07-30T01:36:26;6.47;;;3.58;;
10479;SDS011;12789;42.610;23.040;2023-07-30T01:38:55;7.82;;;3.38;;
10479;SDS011;12789;42.610;23.040;2023-07-30T01:41:24;4.30;;;3.20;;
10479;SDS011;12789;42.610;23.040;2023-07-30T01:43:51;5.00;;;3.35;;
10479;SDS011;12789;42.610;23.040;2023-07-30T01:46:18;5.60;;;3.40;;
10479;SDS011;12789;42.610;23.040;2023-07-30T01:48:48;6.85;;;3.13;;
10479;SDS011;12789;42.610;23.040;2023-07-30T01:51:15;8.15;;;3.45;;
10479;SDS011;12789;42.610;23.040;2023-07-30T01:53:44;5.70;;;3.30;;
10479;SDS011;12789;42.610;23.040;2023-07-30T01:56:12;10.05;;;3.55;;
10479;SDS011;12789;42.610;23.040;2023-07-30T01:58:39;4.53;;;3.50;;
10479;SDS011;12789;42.610;23.040;2023-07-30T02:01:07;5.57;;;3.60;;
10479;SDS011;12789;42.610;23.040;2023-07-30T02:03:34;6.57;;;3.58;;
10479;SDS011;12789;42.610;23.040;2023-07-30T02:06:02;7.47;;;3.53;;
10479;SDS011;12789;42.610;23.040;2023-07-30T02:08:28;8.98;;;3.53;;
10479;SDS011;12789;42.610;23.040;2023-07-30T02:10:56;8.27;;;3.80;;
10479;SDS011;12789;42.610;23.040;2023-07-30T02:13:24;9.27;;;3.83;;
10479;SDS011;12789;42.610;23.040;2023-07-30T02:15:51;8.57;;;4.18;;
10479;SDS011;12789;42.610;23.040;2023-07-30T02:18:18;5.90;;;3.70;;
10479;SDS011;12789;42.610;23.040;2023-07-30T02:20:47;10.25;;;3.60;;
10479;SDS011;12789;42.610;23.040;2023-07-30T02:23:15;8.43;;;4.43;;
10479;SDS011;12789;42.610;23.040;2023-07-30T02:25:45;15.85;;;5.18;;
10479;SDS011;12789;42.610;23.040;2023-07-30T02:28:12;8.60;;;4.47;;
10479;SDS011;12789;42.610;23.040;2023-07-30T02:30:43;15.40;;;5.70;;
10479;SDS011;12789;42.610;23.040;2023-07-30T02:33:10;11.23;;;5.30;;
10479;SDS011;12789;42.610;23.040;2023-07-30T02:35:37;12.98;;;5.47;;
10479;SDS011;12789;42.610;23.040;2023-07-30T02:38:04;11.17;;;5.30;;
10479;SDS011;12789;42.610;23.040;2023-07-30T02:40:35;13.50;;;5.50;;
10479;SDS011;12789;42.610;23.040;2023-07-30T02:43:03;10.35;;;5.22;;
10479;SDS011;12789;42.610;23.040;2023-07-30T02:45:33;15.50;;;5.30;;
10479;SDS011;12789;42.610;23.040;2023-07-30T02:48:04;12.32;;;5.18;;
10479;SDS011;12789;42.610;23.040;2023-07-30T02:50:31;8.48;;;5.53;;
10479;SDS011;12789;42.610;23.040;2023-07-30T02:52:59;8.90;;;6.00;;
10479;SDS011;12789;42.610;23.040;2023-07-30T02:57:52;13.23;;;5.65;;
10479;SDS011;12789;42.610;23.040;2023-07-30T03:00:19;7.80;;;5.00;;
10479;SDS011;12789;42.610;23.040;2023-07-30T03:02:46;9.63;;;5.07;;
10479;SDS011;12789;42.610;23.040;2023-07-30T03:05:15;8.57;;;5.07;;
10479;SDS011;12789;42.610;23.040;2023-07-30T03:07:44;9.32;;;5.70;;
10479;SDS011;12789;42.610;23.040;2023-07-30T03:10:11;10.93;;;5.78;;
10479;SDS011;12789;42.610;23.040;2023-07-30T03:12:38;8.60;;;5.45;;
10479;SDS011;12789;42.610;23.040;2023-07-30T03:15:08;11.85;;;4.85;;
10479;SDS011;12789;42.610;23.040;2023-07-30T03:17:35;9.27;;;5.30;;
10479;SDS011;12789;42.610;23.040;2023-07-30T03:20:03;11.20;;;4.80;;
10479;SDS011;12789;42.610;23.040;2023-07-30T03:22:32;9.27;;;5.75;;
10479;SDS011;12789;42.610;23.040;2023-07-30T03:25:00;11.65;;;6.30;;
10479;SDS011;12789;42.610;23.040;2023-07-30T03:27:27;16.27;;;6.35;;
10479;SDS011;12789;42.610;23.040;2023-07-30T03:29:54;23.30;;;6.78;;
10479;SDS011;12789;42.610;23.040;2023-07-30T03:32:22;21.27;;;7.93;;
10479;SDS011;12789;42.610;23.040;2023-07-30T03:34:49;19.90;;;7.28;;
10479;SDS011;12789;42.610;23.040;2023-07-30T03:37:17;15.68;;;6.10;;
10479;SDS011;12789;42.610;23.040;2023-07-30T03:39:46;28.50;;;13.50;;
10479;SDS011;12789;42.610;23.040;2023-07-30T03:42:13;27.83;;;13.77;;
10479;SDS011;12789;42.610;23.040;2023-07-30T03:44:40;26.02;;;12.07;;
10479;SDS011;12789;42.610;23.040;2023-07-30T03:47:07;22.35;;;8.70;;
10479;SDS011;12789;42.610;23.040;2023-07-30T03:49:33;22.83;;;11.43;;
10479;SDS011;12789;42.610;23.040;2023-07-30T03:52:00;28.20;;;10.88;;
10479;SDS011;12789;42.610;23.040;2023-07-30T03:54:27;33.58;;;10.23;;
10479;SDS011;12789;42.610;23.040;2023-07-30T03:56:57;34.10;;;11.45;;
10479;SDS011;12789;42.610;23.040;2023-07-30T03:59:24;24.77;;;10.15;;
10479;SDS011;12789;42.610;23.040;2023-07-30T04:01:51;26.48;;;9.90;;
10479;SDS011;12789;42.610;23.040;2023-07-30T04:04:18;21.70;;;8.52;;
10479;SDS011;12789;42.610;23.040;2023-07-30T04:06:45;23.38;;;8.43;;
10479;SDS011;12789;42.610;23.040;2023-07-30T04:09:12;24.45;;;8.93;;
10479;SDS011;12789;42.610;23.040;2023-07-30T04:11:38;20.35;;;7.35;;
10479;SDS011;12789;42.610;23.040;2023-07-30T04:14:08;26.70;;;9.05;;
10479;SDS011;12789;42.610;23.040;2023-07-30T04:16:34;25.20;;;8.23;;
10479;SDS011;12789;42.610;23.040;2023-07-30T04:19:02;21.40;;;8.63;;
10479;SDS011;12789;42.610;23.040;2023-07-30T04:21:29;32.90;;;8.57;;
10479;SDS011;12789;42.610;23.040;2023-07-30T04:23:56;30.15;;;8.38;;
10479;SDS011;12789;42.610;23.040;2023-07-30T04:26:23;28.13;;;8.15;;
10479;SDS011;12789;42.610;23.040;2023-07-30T04:28:52;25.92;;;8.27;;
10479;SDS011;12789;42.610;23.040;2023-07-30T04:31:29;26.35;;;7.85;;
10479;SDS011;12789;42.610;23.040;2023-07-30T04:33:58;22.15;;;7.20;;
10479;SDS011;12789;42.610;23.040;2023-07-30T04:36:28;31.85;;;8.10;;
10479;SDS011;12789;42.610;23.040;2023-07-30T04:38:57;30.50;;;8.27;;
10479;SDS011;12789;42.610;23.040;2023-07-30T04:41:25;32.00;;;8.48;;
10479;SDS011;12789;42.610;23.040;2023-07-30T04:43:54;25.20;;;8.73;;
10479;SDS011;12789;42.610;23.040;2023-07-30T04:46:23;44.42;;;11.02;;
10479;SDS011;12789;42.610;23.040;2023-07-30T04:48:50;36.55;;;9.65;;
10479;SDS011;12789;42.610;23.040;2023-07-30T04:51:17;35.90;;;10.05;;
10479;SDS011;12789;42.610;23.040;2023-07-30T04:53:44;40.45;;;10.95;;
10479;SDS011;12789;42.610;23.040;2023-07-30T04:56:10;43.40;;;11.35;;
10479;SDS011;12789;42.610;23.040;2023-07-30T04:58:37;59.80;;;13.23;;
10479;SDS011;12789;42.610;23.040;2023-07-30T05:01:04;50.15;;;14.27;;
10479;SDS011;12789;42.610;23.040;2023-07-30T05:03:33;60.78;;;14.48;;
10479;SDS011;12789;42.610;23.040;2023-07-30T05:06:00;74.38;;;14.80;;
10479;SDS011;12789;42.610;23.040;2023-07-30T05:08:28;59.20;;;13.93;;
10479;SDS011;12789;42.610;23.040;2023-07-30T05:10:54;66.00;;;14.85;;
10479;SDS011;12789;42.610;23.040;2023-07-30T05:13:21;54.97;;;13.95;;
10479;SDS011;12789;42.610;23.040;2023-07-30T05:15:48;55.78;;;15.77;;
10479;SDS011;12789;42.610;23.040;2023-07-30T05:18:15;59.58;;;15.32;;
10479;SDS011;12789;42.610;23.040;2023-07-30T05:20:43;63.75;;;14.23;;
10479;SDS011;12789;42.610;23.040;2023-07-30T05:23:11;40.40;;;12.15;;
10479;SDS011;12789;42.610;23.040;2023-07-30T05:25:38;38.40;;;12.30;;
10479;SDS011;12789;42.610;23.040;2023-07-30T05:28:05;47.08;;;12.35;;
10479;SDS011;12789;42.610;23.040;2023-07-30T05:30:32;41.10;;;12.05;;
10479;SDS011;12789;42.610;23.040;2023-07-30T05:32:58;36.35;;;10.50;;
10479;SDS011;12789;42.610;23.040;2023-07-30T05:35:25;47.97;;;11.50;;
10479;SDS011;12789;42.610;23.040;2023-07-30T05:37:53;34.60;;;11.25;;
10479;SDS011;12789;42.610;23.040;2023-07-30T05:40:21;40.20;;;10.13;;
10479;SDS011;12789;42.610;23.040;2023-07-30T05:42:48;34.65;;;11.80;;
10479;SDS011;12789;42.610;23.040;2023-07-30T05:45:15;35.38;;;10.40;;
10479;SDS011;12789;42.610;23.040;2023-07-30T05:47:42;37.67;;;10.18;;
10479;SDS011;12789;42.610;23.040;2023-07-30T05:50:09;40.63;;;10.57;;
10479;SDS011;12789;42.610;23.040;2023-07-30T05:52:35;30.30;;;9.20;;
10479;SDS011;12789;42.610;23.040;2023-07-30T05:55:05;33.97;;;9.30;;
10479;SDS011;12789;42.610;23.040;2023-07-30T05:57:31;33.22;;;9.27;;
10479;SDS011;12789;42.610;23.040;2023-07-30T05:59:58;24.27;;;8.75;;
10479;SDS011;12789;42.610;23.040;2023-07-30T06:02:24;27.05;;;9.10;;
10479;SDS011;12789;42.610;23.040;2023-07-30T06:04:51;29.08;;;8.45;;
10479;SDS011;12789;42.610;23.040;2023-07-30T06:07:19;41.70;;;9.10;;
10479;SDS011;12789;42.610;23.040;2023-07-30T06:09:45;29.42;;;8.00;;
10479;SDS011;12789;42.610;23.040;2023-07-30T06:12:13;22.70;;;6.88;;
10479;SDS011;12789;42.610;23.040;2023-07-30T06:14:40;21.13;;;7.40;;
10479;SDS011;12789;42.610;23.040;2023-07-30T06:17:06;21.15;;;7.28;;
10479;SDS011;12789;42.610;23.040;2023-07-30T06:19:34;22.17;;;7.35;;
10479;SDS011;12789;42.610;23.040;2023-07-30T06:22:01;17.98;;;6.20;;
10479;SDS011;12789;42.610;23.040;2023-07-30T06:24:28;22.13;;;6.78;;
10479;SDS011;12789;42.610;23.040;2023-07-30T06:26:57;24.88;;;7.18;;
10479;SDS011;12789;42.610;23.040;2023-07-30T06:29:26;18.25;;;6.35;;
10479;SDS011;12789;42.610;23.040;2023-07-30T06:31:53;17.80;;;6.40;;
10479;SDS011;12789;42.610;23.040;2023-07-30T06:34:20;19.45;;;6.35;;
10479;SDS011;12789;42.610;23.040;2023-07-30T06:36:46;20.05;;;6.68;;
10479;SDS011;12789;42.610;23.040;2023-07-30T06:39:13;14.80;;;5.65;;
10479;SDS011;12789;42.610;23.040;2023-07-30T06:41:43;14.05;;;5.63;;
10479;SDS011;12789;42.610;23.040;2023-07-30T06:44:11;22.95;;;6.30;;
10479;SDS011;12789;42.610;23.040;2023-07-30T06:46:39;14.65;;;5.90;;
10479;SDS011;12789;42.610;23.040;2023-07-30T06:49:06;20.92;;;6.32;;
10479;SDS011;12789;42.610;23.040;2023-07-30T06:51:33;18.50;;;6.03;;
10479;SDS011;12789;42.610;23.040;2023-07-30T06:53:59;17.98;;;5.85;;
10479;SDS011;12789;42.610;23.040;2023-07-30T06:56:28;20.35;;;5.82;;
10479;SDS011;12789;42.610;23.040;2023-07-30T06:58:55;21.63;;;5.38;;
10479;SDS011;12789;42.610;23.040;2023-07-30T07:01:21;14.73;;;4.63;;
10479;SDS011;12789;42.610;23.040;2023-07-30T07:03:49;17.60;;;5.28;;
10479;SDS011;12789;42.610;23.040;2023-07-30T07:06:16;15.23;;;4.78;;
10479;SDS011;12789;42.610;23.040;2023-07-30T07:08:42;16.50;;;5.03;;
10479;SDS011;12789;42.610;23.040;2023-07-30T07:11:09;11.85;;;5.20;;
10479;SDS011;12789;42.610;23.040;2023-07-30T07:13:35;13.18;;;4.93;;
10479;SDS011;12789;42.610;23.040;2023-07-30T07:16:02;19.33;;;5.55;;
10479;SDS011;12789;42.610;23.040;2023-07-30T07:18:29;15.55;;;4.90;;
10479;SDS011;12789;42.610;23.040;2023-07-30T07:20:57;17.00;;;5.15;;
10479;SDS011;12789;42.610;23.040;2023-07-30T07:23:24;22.17;;;5.35;;
10479;SDS011;12789;42.610;23.040;2023-07-30T07:25:51;16.25;;;5.45;;
10479;SDS011;12789;42.610;23.040;2023-07-30T07:28:18;21.58;;;5.72;;
10479;SDS011;12789;42.610;23.040;2023-07-30T07:30:45;17.13;;;5.50;;
10479;SDS011;12789;42.610;23.040;2023-07-30T07:33:14;13.00;;;5.00;;
10479;SDS011;12789;42.610;23.040;2023-07-30T07:35:42;12.18;;;4.38;;
10479;SDS011;12789;42.610;23.040;2023-07-30T07:38:10;16.92;;;4.75;;
10479;SDS011;12789;42.610;23.040;2023-07-30T07:40:37;14.35;;;4.25;;
10479;SDS011;12789;42.610;23.040;2023-07-30T07:43:05;24.73;;;5.47;;
10479;SDS011;12789;42.610;23.040;2023-07-30T07:45:32;16.05;;;5.47;;
10479;SDS011;12789;42.610;23.040;2023-07-30T07:48:00;14.63;;;4.60;;
10479;SDS011;12789;42.610;23.040;2023-07-30T07:50:28;13.85;;;4.85;;
10479;SDS011;12789;42.610;23.040;2023-07-30T07:52:55;12.80;;;4.78;;
10479;SDS011;12789;42.610;23.040;2023-07-30T07:55:25;13.00;;;4.30;;
10479;SDS011;12789;42.610;23.040;2023-07-30T07:57:52;14.57;;;4.20;;
10479;SDS011;12789;42.610;23.040;2023-07-30T08:00:19;10.52;;;4.45;;
10479;SDS011;12789;42.610;23.040;2023-07-30T08:02:47;14.10;;;4.38;;
10479;SDS011;12789;42.610;23.040;2023-07-30T08:05:13;12.52;;;4.88;;
10479;SDS011;12789;42.610;23.040;2023-07-30T08:07:41;11.57;;;4.22;;
10479;SDS011;12789;42.610;23.040;2023-07-30T08:10:09;11.65;;;3.78;;
10479;SDS011;12789;42.610;23.040;2023-07-30T08:12:38;10.65;;;3.97;;
10479;SDS011;12789;42.610;23.040;2023-07-30T08:15:06;9.32;;;3.55;;
10479;SDS011;12789;42.610;23.040;2023-07-30T08:17:33;9.57;;;3.75;;
10479;SDS011;12789;42.610;23.040;2023-07-30T08:20:00;11.70;;;3.63;;
10479;SDS011;12789;42.610;23.040;2023-07-30T08:22:27;7.30;;;2.97;;
10479;SDS011;12789;42.610;23.040;2023-07-30T08:24:54;6.43;;;2.92;;
10479;SDS011;12789;42.610;23.040;2023-07-30T08:27:20;7.20;;;3.70;;
10479;SDS011;12789;42.610;23.040;2023-07-30T08:29:49;3.63;;;2.90;;
10479;SDS011;12789;42.610;23.040;2023-07-30T08:32:16;3.10;;;2.58;;
10479;SDS011;12789;42.610;23.040;2023-07-30T08:34:43;4.75;;;3.00;;
10479;SDS011;12789;42.610;23.040;2023-07-30T08:37:09;5.60;;;2.53;;
10479;SDS011;12789;42.610;23.040;2023-07-30T08:39:36;3.00;;;2.65;;
10479;SDS011;12789;42.610;23.040;2023-07-30T08:42:03;10.13;;;2.67;;
10479;SDS011;12789;42.610;23.040;2023-07-30T08:44:30;6.15;;;2.95;;
10479;SDS011;12789;42.610;23.040;2023-07-30T08:46:58;4.18;;;2.78;;
10479;SDS011;12789;42.610;23.040;2023-07-30T08:49:27;3.25;;;2.38;;
10479;SDS011;12789;42.610;23.040;2023-07-30T08:51:58;2.72;;;2.47;;
10479;SDS011;12789;42.610;23.040;2023-07-30T08:54:27;7.43;;;2.67;;
10479;SDS011;12789;42.610;23.040;2023-07-30T08:56:56;9.65;;;2.97;;
10479;SDS011;12789;42.610;23.040;2023-07-30T08:59:23;3.05;;;2.67;;
10479;SDS011;12789;42.610;23.040;2023-07-30T09:01:51;2.92;;;2.63;;
10479;SDS011;12789;42.610;23.040;2023-07-30T09:04:19;4.03;;;2.38;;
10479;SDS011;12789;42.610;23.040;2023-07-30T09:06:47;5.95;;;2.75;;
10479;SDS011;12789;42.610;23.040;2023-07-30T09:09:14;6.03;;;2.58;;
10479;SDS011;12789;42.610;23.040;2023-07-30T09:11:41;7.72;;;2.80;;
10479;SDS011;12789;42.610;23.040;2023-07-30T09:14:07;7.18;;;2.80;;
10479;SDS011;12789;42.610;23.040;2023-07-30T09:16:36;3.92;;;2.65;;
10479;SDS011;12789;42.610;23.040;2023-07-30T09:19:02;4.85;;;2.50;;
10479;SDS011;12789;42.610;23.040;2023-07-30T09:21:31;6.03;;;2.90;;
10479;SDS011;12789;42.610;23.040;2023-07-30T09:23:58;4.90;;;2.60;;
10479;SDS011;12789;42.610;23.040;2023-07-30T09:26:36;3.25;;;2.53;;
10479;SDS011;12789;42.610;23.040;2023-07-30T09:29:07;2.53;;;2.33;;
10479;SDS011;12789;42.610;23.040;2023-07-30T09:31:42;2.90;;;2.40;;
10479;SDS011;12789;42.610;23.040;2023-07-30T09:34:09;2.97;;;2.40;;
10479;SDS011;12789;42.610;23.040;2023-07-30T09:36:37;2.85;;;2.40;;
10479;SDS011;12789;42.610;23.040;2023-07-30T09:39:04;2.83;;;2.35;;
10479;SDS011;12789;42.610;23.040;2023-07-30T09:41:30;4.10;;;2.30;;
10479;SDS011;12789;42.610;23.040;2023-07-30T09:43:57;2.30;;;2.10;;
10479;SDS011;12789;42.610;23.040;2023-07-30T09:46:25;2.15;;;2.03;;
10479;SDS011;12789;42.610;23.040;2023-07-30T09:48:55;2.88;;;2.45;;
10479;SDS011;12789;42.610;23.040;2023-07-30T09:51:22;2.20;;;2.10;;
10479;SDS011;12789;42.610;23.040;2023-07-30T09:53:51;3.78;;;2.28;;
10479;SDS011;12789;42.610;23.040;2023-07-30T09:56:19;2.85;;;2.30;;
10479;SDS011;12789;42.610;23.040;2023-07-30T09:58:45;2.60;;;2.40;;
10479;SDS011;12789;42.610;23.040;2023-07-30T10:01:12;3.03;;;2.40;;
10479;SDS011;12789;42.610;23.040;2023-07-30T10:03:42;2.63;;;2.30;;
10479;SDS011;12789;42.610;23.040;2023-07-30T10:06:11;2.30;;;2.05;;
10479;SDS011;12789;42.610;23.040;2023-07-30T10:08:38;2.33;;;2.08;;
10479;SDS011;12789;42.610;23.040;2023-07-30T10:11:07;2.50;;;2.30;;
10479;SDS011;12789;42.610;23.040;2023-07-30T10:13:35;2.78;;;2.00;;
10479;SDS011;12789;42.610;23.040;2023-07-30T10:16:03;2.53;;;2.30;;
10479;SDS011;12789;42.610;23.040;2023-07-30T10:18:33;2.65;;;2.00;;
10479;SDS011;12789;42.610;23.040;2023-07-30T10:21:00;2.40;;;2.20;;
10479;SDS011;12789;42.610;23.040;2023-07-30T10:23:28;2.97;;;2.17;;
10479;SDS011;12789;42.610;23.040;2023-07-30T10:25:54;3.28;;;2.03;;
10479;SDS011;12789;42.610;23.040;2023-07-30T10:28:33;4.05;;;2.40;;
10479;SDS011;12789;42.610;23.040;2023-07-30T10:31:02;4.60;;;2.10;;
10479;SDS011;12789;42.610;23.040;2023-07-30T10:33:45;4.03;;;2.00;;
10479;SDS011;12789;42.610;23.040;2023-07-30T10:36:12;3.80;;;2.30;;
10479;SDS011;12789;42.610;23.040;2023-07-30T10:38:41;3.35;;;2.15;;
10479;SDS011;12789;42.610;23.040;2023-07-30T10:41:09;2.97;;;2.10;;
10479;SDS011;12789;42.610;23.040;2023-07-30T10:43:38;2.20;;;2.03;;
10479;SDS011;12789;42.610;23.040;2023-07-30T10:46:05;2.35;;;2.17;;
10479;SDS011;12789;42.610;23.040;2023-07-30T10:48:33;4.40;;;2.20;;
10479;SDS011;12789;42.610;23.040;2023-07-30T10:51:00;2.28;;;2.15;;
10479;SDS011;12789;42.610;23.040;2023-07-30T10:53:28;2.20;;;2.00;;
10479;SDS011;12789;42.610;23.040;2023-07-30T10:55:58;2.60;;;2.17;;
10479;SDS011;12789;42.610;23.040;2023-07-30T10:58:28;2.90;;;2.70;;
10479;SDS011;12789;42.610;23.040;2023-07-30T11:00:56;3.97;;;2.60;;
10479;SDS011;12789;42.610;23.040;2023-07-30T11:03:24;3.65;;;2.35;;
10479;SDS011;12789;42.610;23.040;2023-07-30T11:05:51;5.55;;;2.40;;
10479;SDS011;12789;42.610;23.040;2023-07-30T11:08:21;4.70;;;2.58;;
10479;SDS011;12789;42.610;23.040;2023-07-30T11:10:48;3.25;;;2.38;;
10479;SDS011;12789;42.610;23.040;2023-07-30T11:13:15;4.53;;;2.28;;
10479;SDS011;12789;42.610;23.040;2023-07-30T11:15:42;4.35;;;2.33;;
10479;SDS011;12789;42.610;23.040;2023-07-30T11:18:13;3.70;;;2.30;;
10479;SDS011;12789;42.610;23.040;2023-07-30T11:20:42;2.47;;;2.28;;
10479;SDS011;12789;42.610;23.040;2023-07-30T11:23:18;2.20;;;2.10;;
10479;SDS011;12789;42.610;23.040;2023-07-30T11:25:47;2.75;;;2.55;;
10479;SDS011;12789;42.610;23.040;2023-07-30T11:28:14;3.38;;;2.70;;
10479;SDS011;12789;42.610;23.040;2023-07-30T11:30:41;2.67;;;2.47;;
10479;SDS011;12789;42.610;23.040;2023-07-30T11:33:16;2.20;;;2.10;;
10479;SDS011;12789;42.610;23.040;2023-07-30T11:35:43;2.42;;;2.05;;
10479;SDS011;12789;42.610;23.040;2023-07-30T11:38:11;2.63;;;2.42;;
10479;SDS011;12789;42.610;23.040;2023-07-30T11:40:39;2.47;;;2.28;;
10479;SDS011;12789;42.610;23.040;2023-07-30T11:43:06;3.78;;;2.50;;
10479;SDS011;12789;42.610;23.040;2023-07-30T11:45:32;4.28;;;2.42;;
10479;SDS011;12789;42.610;23.040;2023-07-30T11:48:05;2.83;;;2.35;;
10479;SDS011;12789;42.610;23.040;2023-07-30T11:50:43;2.75;;;2.55;;
10479;SDS011;12789;42.610;23.040;2023-07-30T11:53:10;2.38;;;2.20;;
10479;SDS011;12789;42.610;23.040;2023-07-30T11:55:37;2.60;;;2.40;;
10479;SDS011;12789;42.610;23.040;2023-07-30T11:58:04;3.00;;;2.05;;
10479;SDS011;12789;42.610;23.040;2023-07-30T12:00:32;2.75;;;2.53;;
10479;SDS011;12789;42.610;23.040;2023-07-30T12:03:04;3.17;;;2.38;;
10479;SDS011;12789;42.610;23.040;2023-07-30T12:05:32;3.22;;;2.30;;
10479;SDS011;12789;42.610;23.040;2023-07-30T12:08:01;2.50;;;2.30;;
10479;SDS011;12789;42.610;23.040;2023-07-30T12:10:40;2.63;;;2.35;;
10479;SDS011;12789;42.610;23.040;2023-07-30T12:13:10;2.20;;;2.10;;
10479;SDS011;12789;42.610;23.040;2023-07-30T12:15:37;2.50;;;2.30;;
10479;SDS011;12789;42.610;23.040;2023-07-30T12:18:06;3.80;;;2.33;;
10479;SDS011;12789;42.610;23.040;2023-07-30T12:20:33;2.45;;;2.35;;
10479;SDS011;12789;42.610;23.040;2023-07-30T12:23:01;2.85;;;2.53;;
10479;SDS011;12789;42.610;23.040;2023-07-30T12:25:28;5.20;;;2.78;;
10479;SDS011;12789;42.610;23.040;2023-07-30T12:27:54;7.32;;;2.80;;
10479;SDS011;12789;42.610;23.040;2023-07-30T12:30:21;6.88;;;2.67;;
10479;SDS011;12789;42.610;23.040;2023-07-30T12:32:50;2.50;;;2.30;;
10479;SDS011;12789;42.610;23.040;2023-07-30T12:35:17;2.60;;;2.40;;
10479;SDS011;12789;42.610;23.040;2023-07-30T12:37:43;2.65;;;2.28;;
10479;SDS011;12789;42.610;23.040;2023-07-30T12:40:14;2.60;;;2.40;;
10479;SDS011;12789;42.610;23.040;2023-07-30T12:42:41;2.50;;;2.30;;
10479;SDS011;12789;42.610;23.040;2023-07-30T12:45:08;3.10;;;2.38;;
10479;SDS011;12789;42.610;23.040;2023-07-30T12:47:35;2.50;;;2.40;;
10479;SDS011;12789;42.610;23.040;2023-07-30T12:50:02;3.00;;;2.58;;
10479;SDS011;12789;42.610;23.040;2023-07-30T12:52:29;5.07;;;2.58;;
10479;SDS011;12789;42.610;23.040;2023-07-30T12:54:55;2.70;;;2.50;;
10479;SDS011;12789;42.610;23.040;2023-07-30T12:57:23;3.13;;;2.83;;
10479;SDS011;12789;42.610;23.040;2023-07-30T12:59:50;2.55;;;2.45;;
10479;SDS011;12789;42.610;23.040;2023-07-30T13:02:17;2.20;;;2.10;;
10479;SDS011;12789;42.610;23.040;2023-07-30T13:04:44;2.75;;;2.42;;
10479;SDS011;12789;42.610;23.040;2023-07-30T13:07:11;2.80;;;2.47;;
10479;SDS011;12789;42.610;23.040;2023-07-30T13:09:37;5.45;;;2.45;;
10479;SDS011;12789;42.610;23.040;2023-07-30T13:12:05;3.92;;;2.95;;
10479;SDS011;12789;42.610;23.040;2023-07-30T13:14:33;5.20;;;2.80;;
10479;SDS011;12789;42.610;23.040;2023-07-30T13:16:59;2.85;;;2.65;;
10479;SDS011;12789;42.610;23.040;2023-07-30T13:19:26;2.90;;;2.58;;
10479;SDS011;12789;42.610;23.040;2023-07-30T13:21:55;2.72;;;2.40;;
10479;SDS011;12789;42.610;23.040;2023-07-30T13:24:22;3.40;;;2.60;;
10479;SDS011;12789;42.610;23.040;2023-07-30T13:26:50;3.00;;;2.70;;
10479;SDS011;12789;42.610;23.040;2023-07-30T13:29:16;4.72;;;2.70;;
10479;SDS011;12789;42.610;23.040;2023-07-30T13:31:44;4.25;;;2.65;;
10479;SDS011;12789;42.610;23.040;2023-07-30T13:34:11;3.28;;;2.70;;
10479;SDS011;12789;42.610;23.040;2023-07-30T13:36:38;4.05;;;2.70;;
10479;SDS011;12789;42.610;23.040;2023-07-30T13:39:06;3.15;;;2.67;;
10479;SDS011;12789;42.610;23.040;2023-07-30T13:41:33;5.35;;;2.50;;
10479;SDS011;12789;42.610;23.040;2023-07-30T13:43:59;2.95;;;2.58;;
10479;SDS011;12789;42.610;23.040;2023-07-30T13:46:26;2.30;;;2.20;;
10479;SDS011;12789;42.610;23.040;2023-07-30T13:48:55;3.83;;;2.45;;
10479;SDS011;12789;42.610;23.040;2023-07-30T13:51:22;2.38;;;2.17;;
10479;SDS011;12789;42.610;23.040;2023-07-30T13:53:49;4.70;;;2.65;;
10479;SDS011;12789;42.610;23.040;2023-07-30T13:56:19;2.90;;;2.60;;
10479;SDS011;12789;42.610;23.040;2023-07-30T13:58:46;3.13;;;2.28;;
10479;SDS011;12789;42.610;23.040;2023-07-30T14:01:12;2.70;;;2.50;;
10479;SDS011;12789;42.610;23.040;2023-07-30T14:03:40;3.03;;;2.42;;
10479;SDS011;12789;42.610;23.040;2023-07-30T14:06:09;2.30;;;2.20;;
10479;SDS011;12789;42.610;23.040;2023-07-30T14:08:35;6.53;;;2.80;;
10479;SDS011;12789;42.610;23.040;2023-07-30T14:11:02;4.30;;;2.92;;
10479;SDS011;12789;42.610;23.040;2023-07-30T14:13:28;3.05;;;2.50;;
10479;SDS011;12789;42.610;23.040;2023-07-30T14:15:55;2.80;;;2.60;;
10479;SDS011;12789;42.610;23.040;2023-07-30T14:18:23;5.68;;;2.67;;
10479;SDS011;12789;42.610;23.040;2023-07-30T14:20:50;2.92;;;2.60;;
10479;SDS011;12789;42.610;23.040;2023-07-30T14:23:19;2.60;;;2.40;;
10479;SDS011;12789;42.610;23.040;2023-07-30T14:25:46;3.92;;;2.30;;
10479;SDS011;12789;42.610;23.040;2023-07-30T14:28:12;2.63;;;2.42;;
10479;SDS011;12789;42.610;23.040;2023-07-30T14:30:40;2.47;;;2.28;;
10479;SDS011;12789;42.610;23.040;2023-07-30T14:33:09;3.10;;;2.80;;
10479;SDS011;12789;42.610;23.040;2023-07-30T14:35:36;3.60;;;2.35;;